Time;durP1;ratioP1;P1;durP2;ratioP2;P2;SDS_P1;SDS_P2;PMS_P1;PMS_P2;Temp;Humidity;BMP_temperature;BMP_pressure;BME280_temperature;BME280_humidity;BME280_pressure;Samples;Min_cycle;Max_cycle;Signal;HPM_P1;HPM_P2
2022/04/28 00:00:19;;;;;;;11.27;2.40;;;12.80;72.80;;;;;;5133727;27;20255;-68
2022/04/28 00:02:45;;;;;;;11.30;2.50;;;12.90;72.90;;;;;;5133816;27;20497;-68
2022/04/28 00:05:11;;;;;;;9.77;2.53;;;12.90;72.90;;;;;;5133263;27;20484;-68
2022/04/28 00:07:37;;;;;;;7.95;2.40;;;12.80;73.00;;;;;;5134060;27;20070;-68
2022/04/28 00:10:05;;;;;;;9.32;2.80;;;12.90;73.20;;;;;;5133379;27;20046;-68
2022/04/28 00:12:30;;;;;;;9.13;2.28;;;12.90;73.30;;;;;;5133072;27;20075;-68
2022/04/28 00:14:56;;;;;;;5.72;2.30;;;12.90;73.40;;;;;;5134202;27;20518;-71
2022/04/28 00:17:22;;;;;;;6.68;2.30;;;12.90;73.50;;;;;;5133493;27;20372;-68
2022/04/28 00:19:48;;;;;;;6.95;2.35;;;12.90;73.70;;;;;;5133208;27;20027;-68
2022/04/28 00:22:17;;;;;;;13.63;2.67;;;12.90;73.70;;;;;;5133610;27;20027;-68
2022/04/28 00:24:43;;;;;;;12.57;2.83;;;12.90;73.70;;;;;;5133890;27;20046;-68
2022/04/28 00:27:09;;;;;;;10.55;2.88;;;12.90;73.80;;;;;;5133018;27;20038;-69
2022/04/28 00:29:35;;;;;;;9.60;2.95;;;13.00;73.90;;;;;;5132177;27;20023;-68
2022/04/28 00:32:01;;;;;;;14.88;2.70;;;12.90;73.90;;;;;;5133251;27;20451;-68
2022/04/28 00:34:27;;;;;;;7.28;2.22;;;12.90;73.80;;;;;;5122852;27;20028;-68
2022/04/28 00:36:53;;;;;;;9.80;2.33;;;12.90;73.80;;;;;;5119250;27;20118;-68
2022/04/28 00:39:19;;;;;;;9.70;2.50;;;12.90;74.00;;;;;;5133576;27;20110;-68
2022/04/28 00:41:45;;;;;;;9.93;2.85;;;12.90;74.20;;;;;;5132020;27;20126;-68
2022/04/28 00:44:11;;;;;;;7.93;2.30;;;12.90;74.40;;;;;;5122580;27;20070;-68
2022/04/28 00:46:38;;;;;;;7.32;2.17;;;12.90;74.30;;;;;;5130015;27;20023;-69
2022/04/28 00:51:49;;;;;;;3.95;1.73;;;12.80;75.00;;;;;;5133056;27;20058;-68
2022/04/28 00:54:15;;;;;;;3.03;1.75;;;12.70;75.30;;;;;;5131212;27;20382;-68
2022/04/28 00:56:42;;;;;;;5.15;1.52;;;12.70;74.70;;;;;;5131313;27;20038;-68
2022/04/28 00:59:10;;;;;;;8.13;1.85;;;12.70;74.50;;;;;;5132797;27;20043;-68
2022/04/28 01:01:39;;;;;;;7.30;2.08;;;12.60;74.30;;;;;;5130513;27;20031;-68
2022/04/28 01:04:11;;;;;;;8.80;1.85;;;12.70;74.10;;;;;;5131513;27;20038;-68
2022/04/28 01:06:39;;;;;;;6.95;2.05;;;12.70;73.90;;;;;;5120376;27;20023;-68
2022/04/28 01:09:05;;;;;;;9.70;2.08;;;12.70;73.80;;;;;;5131974;27;20555;-68
2022/04/28 01:11:39;;;;;;;7.60;1.58;;;12.70;74.20;;;;;;5132251;27;20054;-68
2022/04/28 01:14:14;;;;;;;6.18;1.90;;;12.70;73.50;;;;;;5131124;27;20386;-68
2022/04/28 01:16:46;;;;;;;7.25;1.85;;;12.70;73.40;;;;;;5132002;27;20114;-68
2022/04/28 01:19:12;;;;;;;4.57;2.05;;;12.70;73.20;;;;;;5132341;27;20110;-68
2022/04/28 01:21:38;;;;;;;11.02;2.15;;;12.70;73.30;;;;;;5130218;27;20038;-68
2022/04/28 01:24:16;;;;;;;6.35;1.98;;;12.70;73.20;;;;;;5130402;27;20117;-68
2022/04/28 01:26:44;;;;;;;9.13;2.00;;;12.80;73.50;;;;;;5131023;27;20027;-68
2022/04/28 01:29:09;;;;;;;4.45;2.33;;;12.80;73.60;;;;;;5132483;27;20026;-68
2022/04/28 01:31:35;;;;;;;5.63;2.03;;;12.80;73.60;;;;;;5131568;27;20386;-68
2022/04/28 01:34:04;;;;;;;6.30;2.17;;;12.80;73.60;;;;;;5130176;27;20375;-68
2022/04/28 01:36:31;;;;;;;6.78;2.20;;;12.80;73.50;;;;;;5129933;27;20068;-68
2022/04/28 01:38:57;;;;;;;7.75;2.70;;;12.80;73.60;;;;;;5130891;27;20424;-68
2022/04/28 01:41:23;;;;;;;4.95;2.08;;;12.80;73.60;;;;;;5130375;27;20084;-69
2022/04/28 01:43:50;;;;;;;11.55;2.40;;;12.80;73.60;;;;;;5129975;27;20072;-68
2022/04/28 01:46:19;;;;;;;6.53;1.95;;;12.80;73.90;;;;;;5130610;27;20038;-68
2022/04/28 01:49:07;;;;;;;9.65;2.58;;;12.80;74.10;;;;;;5112077;27;20495;-68
2022/04/28 01:55:05;;;;;;;7.07;2.40;;;12.80;74.20;;;;;;5130250;27;20027;-68
2022/04/28 01:57:54;;;;;;;6.32;1.90;;;12.80;74.30;;;;;;5130143;27;20039;-68
2022/04/28 02:00:19;;;;;;;6.97;1.98;;;12.80;74.30;;;;;;5131456;27;20483;-68
2022/04/28 02:02:51;;;;;;;4.88;2.05;;;12.70;74.20;;;;;;5130507;27;20114;-69
2022/04/28 02:05:17;;;;;;;7.38;2.25;;;12.80;74.30;;;;;;5124540;27;20142;-68
2022/04/28 02:07:44;;;;;;;14.52;2.40;;;12.80;74.30;;;;;;5124338;27;20069;-68
2022/04/28 02:10:10;;;;;;;9.68;2.72;;;12.70;74.20;;;;;;5119517;27;20428;-68
2022/04/28 02:12:37;;;;;;;9.32;2.30;;;12.70;74.20;;;;;;5129548;28;20034;-68
2022/04/28 02:15:33;;;;;;;4.93;2.45;;;12.70;74.20;;;;;;5068087;28;20492;-68
2022/04/28 02:18:19;;;;;;;4.40;2.05;;;12.70;74.20;;;;;;5131621;28;20185;-68
2022/04/28 02:20:45;;;;;;;10.07;2.50;;;12.70;74.30;;;;;;5129407;28;20044;-68
2022/04/28 02:23:13;;;;;;;6.82;2.20;;;12.70;74.40;;;;;;5131694;27;20023;-68
2022/04/28 02:25:40;;;;;;;5.20;2.45;;;12.70;74.50;;;;;;5116529;28;20081;-68
2022/04/28 02:28:07;;;;;;;6.55;2.90;;;12.70;74.70;;;;;;5130388;28;20057;-68
2022/04/28 02:30:33;;;;;;;7.00;2.38;;;12.70;74.80;;;;;;5124035;28;20043;-69
2022/04/28 02:33:11;;;;;;;10.02;2.33;;;12.80;75.00;;;;;;5115189;27;20028;-68
2022/04/28 02:35:58;;;;;;;6.35;2.15;;;12.80;75.00;;;;;;5128780;27;20533;-68
2022/04/28 02:38:24;;;;;;;7.13;2.60;;;12.70;75.10;;;;;;5135508;27;20027;-68
2022/04/28 02:40:53;;;;;;;7.15;2.25;;;12.70;75.20;;;;;;5123962;27;20045;-68
2022/04/28 02:43:19;;;;;;;8.30;2.35;;;12.60;75.30;;;;;;5134397;27;20027;-68
2022/04/28 02:45:52;;;;;;;7.72;2.45;;;12.70;75.40;;;;;;5134623;27;20070;-68
2022/04/28 02:48:22;;;;;;;9.57;2.30;;;12.60;75.20;;;;;;5122929;27;20505;-68
2022/04/28 02:50:48;;;;;;;6.93;2.45;;;12.70;75.40;;;;;;5134885;27;20031;-68
2022/04/28 02:53:14;;;;;;;9.73;2.58;;;12.60;75.20;;;;;;5126150;27;20076;-68
2022/04/28 02:55:46;;;;;;;8.10;2.08;;;12.60;75.20;;;;;;5126941;27;20031;-68
2022/04/28 02:58:13;;;;;;;5.45;2.22;;;12.60;75.40;;;;;;5122337;27;20077;-68
2022/04/28 03:00:39;;;;;;;10.82;2.60;;;12.60;75.40;;;;;;5133505;27;20450;-68
2022/04/28 03:03:06;;;;;;;4.78;2.42;;;12.60;75.40;;;;;;5133880;27;20096;-68
2022/04/28 03:10:46;;;;;;;6.03;2.65;;;12.60;75.60;;;;;;5133066;27;20068;-68
2022/04/28 03:11:03;;;;;;;8.85;2.42;;;12.50;75.70;;;;;;5124408;27;20039;-68
2022/04/28 03:13:31;;;;;;;10.73;2.60;;;12.60;75.80;;;;;;5133379;27;20078;-68
2022/04/28 03:15:58;;;;;;;7.43;2.72;;;12.60;75.90;;;;;;5133198;27;20130;-68
2022/04/28 03:18:45;;;;;;;6.15;3.15;;;12.60;75.90;;;;;;5134474;27;20027;-68
2022/04/28 03:21:14;;;;;;;19.58;3.35;;;12.50;75.90;;;;;;5121801;27;20078;-68
2022/04/28 03:23:42;;;;;;;6.68;2.75;;;12.50;76.10;;;;;;5131441;27;20028;-67
2022/04/28 03:26:11;;;;;;;7.78;2.67;;;12.50;76.30;;;;;;5133617;27;20798;-67
2022/04/28 03:28:38;;;;;;;8.43;2.53;;;12.50;76.30;;;;;;5130148;27;20024;-68
2022/04/28 03:31:05;;;;;;;8.38;3.08;;;12.50;77.10;;;;;;5126214;27;20027;-68
2022/04/28 03:33:44;;;;;;;5.45;2.70;;;12.50;76.60;;;;;;5120792;27;20027;-67
2022/04/28 03:38:54;;;;;;;4.95;2.50;;;12.50;76.70;;;;;;5134679;27;20026;-68
2022/04/28 03:41:21;;;;;;;9.20;2.55;;;12.50;76.70;;;;;;5132693;27;20398;-68
2022/04/28 03:43:46;;;;;;;10.00;2.88;;;12.50;76.70;;;;;;5131441;27;20027;-68
2022/04/28 03:46:15;;;;;;;6.90;2.80;;;12.40;76.70;;;;;;5132993;27;20228;-68
2022/04/28 03:48:41;;;;;;;14.43;3.10;;;12.40;76.80;;;;;;5132933;27;20034;-68
2022/04/28 03:51:07;;;;;;;8.55;3.25;;;12.40;76.80;;;;;;5131987;27;20043;-68
2022/04/28 03:53:36;;;;;;;8.50;3.20;;;12.40;76.80;;;;;;5132900;27;20039;-68
2022/04/28 03:56:01;;;;;;;10.32;2.92;;;12.40;76.90;;;;;;5120322;27;20023;-68
2022/04/28 03:58:28;;;;;;;14.57;3.22;;;12.30;76.90;;;;;;5131895;27;20043;-68
2022/04/28 04:00:54;;;;;;;6.47;3.17;;;12.30;77.00;;;;;;5132816;27;20390;-68
2022/04/28 04:03:32;;;;;;;5.40;2.63;;;12.30;77.20;;;;;;5132403;27;20088;-68
2022/04/28 04:05:58;;;;;;;8.18;2.78;;;12.30;77.40;;;;;;5132062;27;20054;-68
2022/04/28 04:08:24;;;;;;;10.18;3.00;;;12.30;77.80;;;;;;5132419;27;20019;-68
2022/04/28 04:11:04;;;;;;;9.77;2.67;;;12.30;78.00;;;;;;5133525;27;20039;-68
2022/04/28 04:13:30;;;;;;;11.73;3.67;;;12.20;78.20;;;;;;5132331;27;20051;-68
2022/04/28 04:15:56;;;;;;;9.60;2.70;;;12.20;78.40;;;;;;5132641;27;20501;-68
2022/04/28 04:18:21;;;;;;;8.05;3.00;;;12.20;78.70;;;;;;5132704;27;20745;-68
2022/04/28 04:20:52;;;;;;;11.07;3.88;;;12.10;78.80;;;;;;5118434;27;20031;-68
2022/04/28 04:23:21;;;;;;;9.85;2.72;;;12.10;79.00;;;;;;5118617;27;20024;-68
2022/04/28 04:25:47;;;;;;;8.20;2.90;;;12.10;79.20;;;;;;5131604;27;20066;-68
2022/04/28 04:28:19;;;;;;;11.48;2.90;;;12.00;79.30;;;;;;5132277;27;20432;-68
2022/04/28 04:34:05;;;;;;;9.73;2.70;;;11.90;79.50;;;;;;5131428;27;20023;-68
2022/04/28 04:36:32;;;;;;;7.30;2.10;;;11.90;79.70;;;;;;5131996;27;20466;-68
2022/04/28 04:38:58;;;;;;;8.00;2.15;;;11.90;79.90;;;;;;5132201;27;20034;-68
2022/04/28 04:41:26;;;;;;;8.52;2.17;;;11.80;80.00;;;;;;5130993;27;20094;-68
2022/04/28 04:43:52;;;;;;;7.68;2.10;;;11.70;80.10;;;;;;5132092;27;20123;-68
2022/04/28 04:46:18;;;;;;;12.65;2.25;;;11.70;80.30;;;;;;5118723;27;20034;-68
2022/04/28 04:48:46;;;;;;;10.93;2.22;;;11.70;80.50;;;;;;5119729;27;20032;-68
2022/04/28 04:51:29;;;;;;;8.02;2.08;;;11.70;80.60;;;;;;5120494;27;20035;-68
2022/04/28 04:54:15;;;;;;;5.95;1.90;;;11.70;80.80;;;;;;5131696;27;20027;-68
2022/04/28 04:56:41;;;;;;;6.20;2.20;;;11.70;80.80;;;;;;5131352;27;20625;-68
2022/04/28 04:59:07;;;;;;;10.82;2.33;;;11.60;80.90;;;;;;5131289;27;20050;-68
2022/04/28 05:01:33;;;;;;;8.52;2.38;;;11.60;81.00;;;;;;5131957;27;20375;-68
2022/04/28 05:04:17;;;;;;;15.77;2.05;;;11.60;81.00;;;;;;5120565;27;20245;-68
2022/04/28 05:07:06;;;;;;;11.77;2.28;;;11.50;81.10;;;;;;5127825;27;20036;-68
2022/04/28 05:09:32;;;;;;;11.35;2.30;;;11.60;81.20;;;;;;5123499;27;20015;-68
2022/04/28 05:11:58;;;;;;;8.65;2.22;;;11.50;81.30;;;;;;5132527;27;20034;-68
2022/04/28 05:14:37;;;;;;;10.68;2.53;;;11.50;81.50;;;;;;5131879;27;20715;-68
2022/04/28 05:17:03;;;;;;;10.23;2.17;;;11.50;81.60;;;;;;5125027;27;20028;-68
2022/04/28 05:19:48;;;;;;;11.23;2.65;;;11.50;81.80;;;;;;5129017;27;20043;-68
2022/04/28 05:22:32;;;;;;;9.05;2.03;;;11.60;82.00;;;;;;5131646;27;20075;-68
2022/04/28 05:25:16;;;;;;;11.23;3.05;;;11.50;82.80;;;;;;5119765;27;20061;-68
2022/04/28 05:28:20;;;;;;;11.07;2.77;;;11.50;82.40;;;;;;5132090;27;20088;-69
2022/04/28 05:31:24;;;;;;;11.65;2.60;;;11.50;82.60;;;;;;5118205;27;20035;-68
2022/04/28 05:33:55;;;;;;;16.98;3.28;;;11.50;82.80;;;;;;5132409;27;20163;-67
2022/04/28 05:36:33;;;;;;;12.77;2.30;;;11.50;83.30;;;;;;5129927;27;20019;-68
2022/04/28 05:39:00;;;;;;;18.98;2.58;;;11.50;84.10;;;;;;5130940;27;20033;-68
2022/04/28 05:41:27;;;;;;;14.65;3.50;;;11.50;83.80;;;;;;5117538;27;20046;-68
2022/04/28 05:46:46;;;;;;;9.00;2.55;;;11.50;84.00;;;;;;5104961;27;20051;-68
2022/04/28 05:49:12;;;;;;;9.43;2.45;;;11.50;84.00;;;;;;5130551;27;20019;-67
2022/04/28 05:51:40;;;;;;;6.18;1.95;;;11.50;84.10;;;;;;5130177;27;20023;-68
2022/04/28 05:54:08;;;;;;;16.45;2.78;;;11.60;84.20;;;;;;5126587;27;20024;-68
2022/04/28 05:56:34;;;;;;;7.85;2.90;;;11.60;84.40;;;;;;5121444;27;20397;-69
2022/04/28 05:59:02;;;;;;;8.20;2.65;;;11.60;84.40;;;;;;5131352;27;20039;-68
2022/04/28 06:01:46;;;;;;;11.05;2.25;;;11.60;84.60;;;;;;5131749;27;20103;-68
2022/04/28 06:04:15;;;;;;;11.25;2.22;;;11.60;84.60;;;;;;5130018;27;20042;-67
2022/04/28 06:06:45;;;;;;;9.32;2.17;;;11.60;84.60;;;;;;5130007;27;20027;-69
2022/04/28 06:09:21;;;;;;;13.52;2.25;;;11.70;84.80;;;;;;5130545;27;20022;-68
2022/04/28 06:11:47;;;;;;;12.60;2.42;;;11.60;84.80;;;;;;5129447;27;20367;-70
2022/04/28 06:14:13;;;;;;;12.30;2.20;;;11.70;84.90;;;;;;5119574;28;20050;-70
2022/04/28 06:16:44;;;;;;;9.80;2.22;;;11.60;84.80;;;;;;5130062;28;20027;-71
2022/04/28 06:19:25;;;;;;;4.93;1.73;;;11.70;84.80;;;;;;5129555;28;20027;-71
2022/04/28 06:22:14;;;;;;;7.25;1.88;;;11.70;84.70;;;;;;5125446;28;20409;-72
2022/04/28 06:24:44;;;;;;;15.73;2.05;;;11.70;84.60;;;;;;5129816;28;20088;-71
2022/04/28 06:27:12;;;;;;;13.30;2.20;;;11.80;84.70;;;;;;5117154;28;20039;-71
2022/04/28 06:29:39;;;;;;;11.93;1.92;;;11.80;84.80;;;;;;5130404;28;20401;-71
2022/04/28 06:32:07;;;;;;;13.45;2.08;;;11.80;84.90;;;;;;5129508;28;20043;-69
2022/04/28 06:35:12;;;;;;;8.95;2.10;;;11.80;84.90;;;;;;5107472;28;20039;-68
2022/04/28 06:37:43;;;;;;;9.65;2.00;;;11.80;85.00;;;;;;5117381;28;20087;-68
2022/04/28 06:40:12;;;;;;;8.25;1.67;;;11.80;85.10;;;;;;5129505;28;20534;-68
2022/04/28 06:42:43;;;;;;;10.40;1.92;;;11.80;85.10;;;;;;5130019;28;20035;-68
2022/04/28 06:45:24;;;;;;;5.97;1.98;;;11.80;85.10;;;;;;5131463;27;20057;-68
2022/04/28 06:48:28;;;;;;;11.50;2.10;;;11.80;85.00;;;;;;5131432;28;20049;-68
2022/04/28 06:51:12;;;;;;;;;;;11.80;85.20;;;;;;5131710;28;20092;-68
2022/04/28 06:54:10;;;;;;;6.28;1.33;;;11.80;85.20;;;;;;5104924;28;19913;-68
2022/04/28 06:56:36;;;;;;;11.27;3.70;;;11.80;85.30;;;;;;5130648;27;20423;-68
2022/04/28 06:59:06;;;;;;;7.47;1.45;;;11.80;85.50;;;;;;5129576;28;20058;-68
2022/04/28 07:01:34;;;;;;;7.32;1.40;;;11.80;85.40;;;;;;5129295;28;20042;-68
2022/04/28 07:04:01;;;;;;;9.32;1.92;;;11.90;85.60;;;;;;5129726;28;20080;-68
2022/04/28 07:06:27;;;;;;;7.30;1.85;;;11.90;85.40;;;;;;5130012;28;20038;-67
2022/04/28 07:08:53;;;;;;;10.75;1.90;;;11.90;84.90;;;;;;5129043;28;20024;-68
2022/04/28 07:11:19;;;;;;;12.55;2.30;;;11.80;84.40;;;;;;5131409;27;20030;-68
2022/04/28 07:13:46;;;;;;;2.80;1.25;;;11.90;83.80;;;;;;5116289;28;20020;-67
2022/04/28 07:16:37;;;;;;;10.30;1.70;;;11.90;83.70;;;;;;5098263;28;20035;-68
2022/04/28 07:19:23;;;;;;;8.60;1.42;;;11.90;84.10;;;;;;5131468;27;20035;-68
2022/04/28 07:21:51;;;;;;;8.95;1.85;;;11.90;84.10;;;;;;5132610;27;20081;-68
2022/04/28 07:24:17;;;;;;;7.82;1.90;;;11.90;84.20;;;;;;5133565;27;20490;-67
2022/04/28 07:26:43;;;;;;;5.07;1.30;;;12.00;84.40;;;;;;5133276;27;20076;-68
2022/04/28 07:29:10;;;;;;;5.22;1.55;;;12.00;84.60;;;;;;5131965;27;20431;-70
2022/04/28 07:31:58;;;;;;;7.75;1.42;;;12.00;84.50;;;;;;5125182;27;20031;-71
2022/04/28 07:35:00;;;;;;;10.35;1.85;;;12.00;84.70;;;;;;5092239;28;20422;-68
2022/04/28 07:37:44;;;;;;;14.68;2.45;;;12.00;84.80;;;;;;5130678;27;20034;-69
2022/04/28 07:40:32;;;;;;;7.97;1.75;;;12.00;84.30;;;;;;5133645;27;20046;-69
2022/04/28 07:43:00;;;;;;;6.80;1.88;;;12.00;84.00;;;;;;5132719;27;20019;-69
2022/04/28 07:45:26;;;;;;;6.78;1.75;;;12.10;83.50;;;;;;5132291;27;20023;-70
2022/04/28 07:47:54;;;;;;;22.48;2.75;;;12.10;83.90;;;;;;5132027;27;20020;-71
2022/04/28 07:50:23;;;;;;;9.52;2.42;;;12.20;84.00;;;;;;5130917;27;20038;-68
2022/04/28 07:52:50;;;;;;;14.63;3.03;;;12.20;84.20;;;;;;5131532;27;20027;-68
2022/04/28 07:55:16;;;;;;;14.32;3.00;;;12.20;84.60;;;;;;5131695;27;20023;-68
2022/04/28 07:57:44;;;;;;;11.75;3.28;;;12.20;84.60;;;;;;5131736;27;20039;-68
2022/04/28 08:00:17;;;;;;;12.85;3.30;;;12.30;84.90;;;;;;5132881;27;20054;-68
2022/04/28 08:02:47;;;;;;;17.63;3.65;;;12.30;84.80;;;;;;5132601;27;20043;-68
2022/04/28 08:05:16;;;;;;;17.17;4.30;;;12.30;84.40;;;;;;5131481;27;20049;-68
2022/04/28 08:07:45;;;;;;;9.70;2.08;;;12.40;84.40;;;;;;5130697;27;20034;-68
2022/04/28 08:10:12;;;;;;;10.40;2.25;;;12.40;84.70;;;;;;5130888;27;20027;-68
2022/04/28 08:12:37;;;;;;;8.18;2.10;;;12.40;84.20;;;;;;5132604;27;20020;-68
2022/04/28 08:15:18;;;;;;;6.70;2.25;;;12.40;84.00;;;;;;5133276;27;20396;-68
2022/04/28 08:17:44;;;;;;;12.07;2.85;;;12.40;84.30;;;;;;5131117;27;20023;-68
2022/04/28 08:20:10;;;;;;;11.32;1.85;;;12.40;84.50;;;;;;5131632;27;20482;-68
2022/04/28 08:22:36;;;;;;;9.15;2.15;;;12.50;84.30;;;;;;5123781;27;20088;-68
2022/04/28 08:25:05;;;;;;;11.52;2.92;;;12.50;84.40;;;;;;5127807;27;20585;-68
2022/04/28 08:27:31;;;;;;;20.63;3.30;;;12.50;84.40;;;;;;5131832;27;20024;-68
2022/04/28 08:29:57;;;;;;;16.52;2.85;;;12.50;84.20;;;;;;5131662;27;20034;-68
2022/04/28 08:32:23;;;;;;;17.80;2.90;;;12.60;83.80;;;;;;5131437;27;20035;-68
2022/04/28 08:34:49;;;;;;;13.23;2.45;;;12.60;84.10;;;;;;5131915;27;20467;-68
2022/04/28 08:37:15;;;;;;;14.77;2.08;;;12.60;84.00;;;;;;5132046;27;20072;-68
2022/04/28 08:39:41;;;;;;;9.27;2.20;;;12.60;84.30;;;;;;5130981;27;20027;-68
2022/04/28 08:42:11;;;;;;;14.70;2.50;;;12.60;83.70;;;;;;5131834;27;20050;-68
2022/04/28 08:44:46;;;;;;;11.93;2.60;;;12.60;83.30;;;;;;5131372;27;20619;-68
2022/04/28 08:47:52;;;;;;;5.50;1.80;;;12.70;83.20;;;;;;5069361;28;20109;-68
2022/04/28 08:50:39;;;;;;;11.55;2.40;;;12.70;83.90;;;;;;5069374;28;20071;-68
2022/04/28 08:53:11;;;;;;;8.32;2.20;;;12.70;84.10;;;;;;5110053;27;20828;-68
2022/04/28 08:55:44;;;;;;;10.85;2.30;;;12.80;84.00;;;;;;5127273;27;20015;-68
2022/04/28 08:58:10;;;;;;;10.60;1.90;;;12.80;83.80;;;;;;5124013;27;20039;-67
2022/04/28 09:00:56;;;;;;;5.95;1.88;;;12.90;83.90;;;;;;5131134;27;20038;-68
2022/04/28 09:03:25;;;;;;;11.15;2.10;;;12.90;83.90;;;;;;5133415;27;20072;-69
2022/04/28 09:06:20;;;;;;;14.93;2.53;;;12.90;83.40;;;;;;5133162;27;20457;-68
2022/04/28 09:09:14;;;;;;;7.38;1.80;;;12.90;82.90;;;;;;5121600;27;20034;-68
2022/04/28 09:12:00;;;;;;;4.97;1.45;;;13.00;82.90;;;;;;5133228;27;20080;-68
2022/04/28 09:15:11;;;;;;;5.88;2.13;;;13.00;83.60;;;;;;5130723;27;20042;-68
2022/04/28 09:17:41;;;;;;;8.73;2.17;;;13.10;84.90;;;;;;5131708;27;20023;-68
2022/04/28 09:20:16;;;;;;;6.15;1.73;;;13.10;84.70;;;;;;5130871;27;20032;-68
2022/04/28 09:22:44;;;;;;;;;;;13.10;84.90;;;;;;5132181;27;20435;-68
2022/04/28 09:25:14;;;;;;;9.98;2.10;;;13.10;85.60;;;;;;5127069;27;19912;-68
2022/04/28 09:27:40;;;;;;;11.10;1.95;;;13.10;85.00;;;;;;5121416;27;20034;-68
2022/04/28 09:30:07;;;;;;;7.05;1.90;;;13.20;83.90;;;;;;5131022;27;20057;-68
2022/04/28 09:32:39;;;;;;;5.95;2.08;;;13.20;83.30;;;;;;5131523;27;20027;-68
2022/04/28 09:35:28;;;;;;;10.95;1.67;;;13.30;84.10;;;;;;5120432;27;20114;-69
2022/04/28 09:38:05;;;;;;;17.25;2.55;;;13.30;84.00;;;;;;5130860;27;20031;-66
2022/04/28 09:43:21;;;;;;;18.02;3.25;;;13.40;83.40;;;;;;5131014;27;20019;-67
2022/04/28 09:45:51;;;;;;;9.63;1.98;;;13.40;83.20;;;;;;5117812;27;20039;-68
2022/04/28 09:48:19;;;;;;;8.27;2.20;;;13.50;82.80;;;;;;5130949;27;20027;-67
2022/04/28 09:51:09;;;;;;;20.30;2.40;;;13.50;83.50;;;;;;5129923;27;20126;-67
2022/04/28 09:53:55;;;;;;;9.90;1.85;;;13.60;82.70;;;;;;5132251;27;20069;-68
2022/04/28 09:56:34;;;;;;;7.22;1.95;;;13.60;82.60;;;;;;5129656;27;20030;-67
2022/04/28 09:59:13;;;;;;;7.28;2.17;;;13.60;82.70;;;;;;5130636;27;20065;-68
2022/04/28 10:01:44;;;;;;;14.98;2.80;;;13.70;82.00;;;;;;5107987;28;20059;-67
2022/04/28 10:04:10;;;;;;;15.40;2.17;;;13.70;81.90;;;;;;5100461;28;20021;-68
2022/04/28 10:06:58;;;;;;;7.93;1.98;;;13.70;81.80;;;;;;5094796;28;20495;-67
2022/04/28 10:09:28;;;;;;;14.07;2.20;;;13.80;82.50;;;;;;5100508;28;20382;-67
2022/04/28 10:12:05;;;;;;;10.73;2.13;;;13.80;82.00;;;;;;5095049;28;20440;-67
2022/04/28 10:14:40;;;;;;;12.50;1.95;;;13.80;81.60;;;;;;5096258;28;20024;-68
2022/04/28 10:17:11;;;;;;;9.50;2.58;;;13.90;81.20;;;;;;5109224;28;20024;-66
2022/04/28 10:19:43;;;;;;;9.50;2.00;;;13.90;80.90;;;;;;5097515;28;20081;-67
2022/04/28 10:22:33;;;;;;;10.43;2.00;;;14.00;81.50;;;;;;5096677;28;20067;-67
2022/04/28 10:33:50;;;;;;;9.65;2.35;;;14.10;81.60;;;;;;5110924;28;20039;-67
2022/04/28 10:36:20;;;;;;;10.00;2.30;;;14.20;81.50;;;;;;5097800;28;20394;-67
2022/04/28 10:39:07;;;;;;;7.60;2.00;;;14.20;81.90;;;;;;5100640;28;20068;-67
2022/04/28 10:41:34;;;;;;;9.38;2.05;;;14.30;81.70;;;;;;5090815;28;20046;-70
2022/04/28 10:44:02;;;;;;;14.95;2.13;;;14.30;81.10;;;;;;5103485;28;20027;-67
2022/04/28 10:46:28;;;;;;;11.77;3.33;;;14.30;81.10;;;;;;5110501;28;20031;-67
2022/04/28 10:48:59;;;;;;;5.43;1.67;;;14.30;80.30;;;;;;5107919;28;20039;-67
2022/04/28 10:51:27;;;;;;;8.68;1.80;;;14.30;79.30;;;;;;5098892;28;20039;-68
2022/04/28 10:54:06;;;;;;;9.35;1.98;;;14.40;79.70;;;;;;5098158;28;20107;-68
2022/04/28 10:57:20;;;;;;;5.82;1.67;;;14.40;80.20;;;;;;5100963;28;20081;-68
2022/04/28 10:59:40;;;;;;;10.45;2.08;;;14.50;80.50;;;;;;5095381;28;20403;-68
2022/04/28 11:02:10;;;;;;;5.90;1.75;;;14.60;80.80;;;;;;5099006;28;20523;-68
2022/04/28 11:04:37;;;;;;;8.73;1.80;;;14.50;80.70;;;;;;5098878;28;20961;-69
2022/04/28 11:07:11;;;;;;;8.38;2.20;;;14.60;81.00;;;;;;5100600;28;20024;-68
2022/04/28 11:09:39;;;;;;;11.02;2.30;;;14.60;80.10;;;;;;5101392;28;20082;-68
2022/04/28 11:12:12;;;;;;;7.32;2.00;;;14.60;79.80;;;;;;5107335;28;20027;-68
2022/04/28 11:14:46;;;;;;;10.00;1.97;;;14.60;78.90;;;;;;5094948;28;20486;-68
2022/04/28 11:17:14;;;;;;;11.63;1.90;;;14.70;78.90;;;;;;5103484;28;20077;-68
2022/04/28 11:19:44;;;;;;;6.00;1.80;;;14.70;79.00;;;;;;5098377;28;20031;-68
2022/04/28 11:22:13;;;;;;;5.90;1.90;;;14.70;79.80;;;;;;5098129;28;20119;-68
2022/04/28 11:24:46;;;;;;;13.82;2.13;;;14.80;80.60;;;;;;5104131;28;20032;-68
2022/04/28 11:27:24;;;;;;;12.23;1.35;;;14.80;80.30;;;;;;5096544;28;20392;-68
2022/04/28 11:29:57;;;;;;;14.30;1.73;;;14.80;79.90;;;;;;5100727;28;20024;-69
2022/04/28 11:32:24;;;;;;;2.95;1.52;;;14.90;80.00;;;;;;5105081;28;20027;-68
2022/04/28 11:34:52;;;;;;;8.30;1.95;;;14.90;80.50;;;;;;5103420;28;20498;-69
2022/04/28 11:37:22;;;;;;;7.80;2.42;;;14.90;79.70;;;;;;5095730;28;20039;-69
2022/04/28 11:39:50;;;;;;;8.40;1.75;;;15.00;79.80;;;;;;5102189;28;20027;-69
2022/04/28 11:42:18;;;;;;;12.25;2.30;;;15.00;81.00;;;;;;5095387;28;20047;-69
2022/04/28 11:44:48;;;;;;;7.63;1.80;;;15.00;81.00;;;;;;5098041;28;20036;-70
2022/04/28 11:47:14;;;;;;;9.38;3.00;;;15.00;79.60;;;;;;5107273;28;20035;-71
2022/04/28 11:49:40;;;;;;;7.55;1.73;;;15.10;79.90;;;;;;5092929;28;20039;-68
2022/04/28 11:52:34;;;;;;;9.15;2.17;;;15.10;80.20;;;;;;5098239;28;20104;-68
2022/04/28 11:55:08;;;;;;;4.63;1.20;;;15.10;79.40;;;;;;5104759;28;20048;-67
2022/04/28 11:57:36;;;;;;;;;;;15.10;79.20;;;;;;5111647;28;20023;-68
2022/04/28 12:00:07;;;;;;;15.05;1.95;;;15.20;81.30;;;;;;5106446;28;19923;-71
2022/04/28 12:02:38;;;;;;;8.57;1.85;;;15.20;80.50;;;;;;5103845;28;20080;-71
2022/04/28 12:05:19;;;;;;;8.10;1.90;;;15.10;80.00;;;;;;5108740;28;20028;-71
2022/04/28 12:07:52;;;;;;;4.03;1.30;;;15.10;79.70;;;;;;5109877;27;20562;-67
2022/04/28 12:16:12;;;;;;;5.72;1.83;;;15.20;79.50;;;;;;5091262;28;20390;-67
2022/04/28 12:21:36;;;;;;;9.10;1.90;;;15.20;80.90;;;;;;5101915;28;20452;-67
2022/04/28 12:24:13;;;;;;;8.65;1.88;;;15.20;81.40;;;;;;5111292;28;20023;-67
2022/04/28 12:26:43;;;;;;;5.75;1.73;;;15.30;80.70;;;;;;5109029;28;20580;-67
2022/04/28 12:29:11;;;;;;;8.93;1.77;;;15.30;80.40;;;;;;5101971;28;20057;-67
2022/04/28 12:31:37;;;;;;;8.63;1.58;;;15.30;81.20;;;;;;5111355;28;20035;-68
2022/04/28 12:34:19;;;;;;;9.07;2.00;;;15.30;81.10;;;;;;5111930;28;20047;-67
2022/04/28 12:36:59;;;;;;;9.63;1.73;;;15.30;80.10;;;;;;5111317;28;20032;-67
2022/04/28 12:39:26;;;;;;;13.43;1.70;;;15.40;79.30;;;;;;5095385;28;20118;-67
2022/04/28 12:41:52;;;;;;;5.95;1.40;;;15.40;79.30;;;;;;5100922;28;20051;-67
2022/04/28 12:44:20;;;;;;;7.43;1.90;;;15.40;78.90;;;;;;5101287;28;20516;-67
2022/04/28 12:46:46;;;;;;;6.10;1.42;;;15.40;80.60;;;;;;5110432;28;20040;-67
2022/04/28 12:49:17;;;;;;;6.63;1.60;;;15.50;79.20;;;;;;5105673;27;20770;-67
2022/04/28 12:51:46;;;;;;;8.93;2.15;;;15.50;79.00;;;;;;5103839;28;20042;-67
2022/04/28 12:54:17;;;;;;;9.15;1.75;;;15.50;79.70;;;;;;5110171;28;20092;-67
2022/04/28 12:56:52;;;;;;;8.10;1.75;;;15.50;79.00;;;;;;5106631;28;20122;-67
2022/04/28 12:59:20;;;;;;;7.13;1.83;;;15.50;79.20;;;;;;5101086;28;20395;-67
2022/04/28 13:01:48;;;;;;;14.13;2.15;;;15.60;80.50;;;;;;5110176;28;20070;-70
2022/04/28 13:04:18;;;;;;;8.23;2.33;;;15.60;80.00;;;;;;5111881;28;20438;-68
2022/04/28 13:06:44;;;;;;;7.93;1.40;;;15.60;79.70;;;;;;5095538;28;20037;-67
2022/04/28 13:09:10;;;;;;;6.30;1.90;;;15.60;79.70;;;;;;5105529;28;20038;-68
2022/04/28 13:11:39;;;;;;;7.32;1.77;;;15.60;78.80;;;;;;5110360;28;20034;-68
2022/04/28 13:14:06;;;;;;;7.32;1.50;;;15.60;80.70;;;;;;5109953;28;20049;-68
2022/04/28 13:16:32;;;;;;;6.97;1.60;;;15.70;79.30;;;;;;5110519;28;20126;-68
2022/04/28 13:18:58;;;;;;;10.90;2.03;;;15.60;79.30;;;;;;5096429;28;20487;-68
2022/04/28 13:21:28;;;;;;;8.23;1.60;;;15.70;80.40;;;;;;5098811;28;20101;-68
2022/04/28 13:23:54;;;;;;;4.60;1.58;;;15.70;80.10;;;;;;5102439;28;20027;-68
2022/04/28 13:26:21;;;;;;;9.45;2.25;;;15.70;81.50;;;;;;5090372;28;20383;-67
2022/04/28 13:28:48;;;;;;;8.65;1.75;;;15.80;79.50;;;;;;5096771;28;20035;-68
2022/04/28 13:31:15;;;;;;;11.55;1.70;;;15.70;79.10;;;;;;5111065;28;20062;-68
2022/04/28 13:33:41;;;;;;;10.57;1.73;;;15.70;79.30;;;;;;5102765;28;20081;-68
2022/04/28 13:36:08;;;;;;;8.35;1.90;;;15.80;78.20;;;;;;5103351;28;20040;-68
2022/04/28 13:38:34;;;;;;;6.13;2.00;;;15.80;79.60;;;;;;5107247;28;20043;-70
2022/04/28 13:41:00;;;;;;;10.18;1.92;;;15.80;80.00;;;;;;5105887;28;20040;-68
2022/04/28 13:43:26;;;;;;;9.55;1.92;;;15.80;80.10;;;;;;5090889;28;20032;-68